Time;durP1;ratioP1;P1;durP2;ratioP2;P2;SDS_P1;SDS_P2;PMS_P1;PMS_P2;Temp;Humidity;BMP_temperature;BMP_pressure;BME280_temperature;BME280_humidity;BME280_pressure;Samples;Min_cycle;Max_cycle;Signal;HPM_P1;HPM_P2
2023/10/09 00:00:50;;;;;;;;;;;18.50;70.10;;;;;;5097709;28;19960;-71
2023/10/09 00:03:17;;;;;;;;;;;18.50;70.10;;;;;;5097151;28;19923;-71
2023/10/09 00:05:46;;;;;;;;;;;18.50;70.10;;;;;;5097488;28;19923;-71
2023/10/09 00:08:17;;;;;;;;;;;18.40;70.10;;;;;;5097450;28;20395;-71
2023/10/09 00:10:48;;;;;;;;;;;18.50;70.10;;;;;;5115468;28;19919;-71
2023/10/09 00:13:14;;;;;;;;;;;18.40;70.00;;;;;;5097357;28;19920;-71
2023/10/09 00:15:41;;;;;;;;;;;18.40;70.10;;;;;;5097049;28;19923;-71
2023/10/09 00:18:11;;;;;;;;;;;18.40;70.10;;;;;;5115160;28;19924;-72
2023/10/09 00:20:42;;;;;;;;;;;18.40;70.10;;;;;;5097272;28;20260;-71
2023/10/09 00:23:15;;;;;;;;;;;18.40;70.10;;;;;;5130978;27;20382;-71
2023/10/09 00:25:54;;;;;;;;;;;18.40;70.10;;;;;;5097245;28;19946;-72
2023/10/09 00:28:21;;;;;;;;;;;18.40;70.80;;;;;;5096716;28;19920;-72
2023/10/09 00:30:47;;;;;;;;;;;18.40;70.10;;;;;;5096735;28;19924;-71
2023/10/09 00:33:12;;;;;;;;;;;18.40;70.10;;;;;;5114930;28;19919;-71
2023/10/09 00:35:54;;;;;;;;;;;18.40;70.10;;;;;;5096239;28;19919;-71
2023/10/09 00:41:09;;;;;;;;;;;18.40;70.10;;;;;;5127579;27;1866023;-71
2023/10/09 00:43:37;;;;;;;;;;;18.40;70.10;;;;;;5174677;27;19923;-71
2023/10/09 00:46:04;;;;;;;;;;;18.50;70.30;;;;;;5174716;27;20293;-70
2023/10/09 00:48:32;;;;;;;;;;;18.80;69.90;;;;;;5174562;27;20274;-71
2023/10/09 00:51:00;;;;;;;;;;;19.10;69.00;;;;;;5174347;27;19967;-71
2023/10/09 00:53:30;;;;;;;;;;;19.60;67.80;;;;;;5174091;27;19967;-71
2023/10/09 00:55:57;;;;;;;;;;;20.10;66.40;;;;;;5174727;27;19918;-71
2023/10/09 00:58:26;;;;;;;;;;;20.80;64.60;;;;;;5174381;27;19926;-71
2023/10/09 01:00:52;;;;;;;;;;;21.50;62.70;;;;;;5174053;27;19923;-71
2023/10/09 01:03:21;;;;;;;;;;;22.10;60.90;;;;;;5174127;27;20400;-71
2023/10/09 01:05:52;;;;;;;;;;;22.70;59.30;;;;;;5174367;27;19918;-70
2023/10/09 01:08:25;;;;;;;;;;;23.20;58.10;;;;;;5174406;27;20009;-71
2023/10/09 01:10:53;;;;;;;;;;;23.70;56.90;;;;;;5174390;27;19982;-71
2023/10/09 01:13:18;;;;;;;;;;;24.10;55.80;;;;;;5174375;27;20254;-71
2023/10/09 01:15:45;;;;;;;;;;;24.50;55.10;;;;;;5173786;27;19929;-71
2023/10/09 01:18:12;;;;;;;;;;;24.60;54.40;;;;;;5173800;27;19918;-72
2023/10/09 01:20:41;;;;;;;;;;;24.70;54.20;;;;;;5173751;27;19963;-71
2023/10/09 01:23:09;;;;;;;;;;;24.70;53.90;;;;;;5173746;27;19919;-71
2023/10/09 01:25:41;;;;;;;;;;;24.70;54.00;;;;;;5173874;27;20017;-71
2023/10/09 01:28:07;;;;;;;;;;;24.60;54.10;;;;;;5173613;27;19918;-71
2023/10/09 01:30:33;;;;;;;;;;;24.40;54.40;;;;;;5173788;27;20014;-71
2023/10/09 01:33:11;;;;;;;;;;;24.20;55.60;;;;;;5173826;27;19918;-71
2023/10/09 01:35:46;;;;;;;;;;;24.00;55.30;;;;;;5192208;27;20385;-71
2023/10/09 01:38:14;;;;;;;;;;;23.70;55.80;;;;;;5173608;27;20009;-71
2023/10/09 01:40:40;;;;;;;;;;;23.40;56.40;;;;;;5172928;27;19926;-70
2023/10/09 01:43:09;;;;;;;;;;;23.20;56.90;;;;;;5173570;27;19918;-70
2023/10/09 01:45:42;;;;;;;;;;;23.00;57.40;;;;;;5191966;27;20404;-71
2023/10/09 01:48:08;;;;;;;;;;;22.80;57.90;;;;;;5173149;27;19919;-71
2023/10/09 01:50:35;;;;;;;;;;;22.60;58.40;;;;;;5168987;27;19923;-71
2023/10/09 01:53:02;;;;;;;;;;;22.30;58.90;;;;;;5159657;27;19926;-71
2023/10/09 01:55:39;;;;;;;;;;;22.10;59.40;;;;;;5159075;27;19966;-71
2023/10/09 01:58:06;;;;;;;;;;;22.00;59.80;;;;;;5177985;27;20251;-71
2023/10/09 02:00:35;;;;;;;;;;;21.80;60.20;;;;;;5159258;27;19923;-72
2023/10/09 02:03:05;;;;;;;;;;;21.70;60.70;;;;;;5159074;27;19926;-71
2023/10/09 02:05:33;;;;;;;;;;;21.50;60.90;;;;;;5177585;27;19976;-72
2023/10/09 02:08:03;;;;;;;;;;;21.40;61.30;;;;;;5159215;27;20331;-71
2023/10/09 02:13:10;;;;;;;;;;;21.10;62.00;;;;;;5110256;27;20355;-71
2023/10/09 02:26:32;;;;;;;;;;;21.10;62.20;;;;;;5089809;28;19919;-71
2023/10/09 02:28:58;;;;;;;;;;;21.20;62.10;;;;;;5088977;28;19979;-70
2023/10/09 02:31:26;;;;;;;;;;;21.20;61.90;;;;;;5088943;28;19983;-71
2023/10/09 02:33:55;;;;;;;;;;;21.30;61.80;;;;;;5088720;28;19963;-70
2023/10/09 02:36:21;;;;;;;;;;;21.40;61.70;;;;;;5088719;28;20023;-71
2023/10/09 02:38:48;;;;;;;;;;;21.50;61.50;;;;;;5088359;28;19920;-71
2023/10/09 02:43:57;;;;;;;;;;;21.60;60.90;;;;;;5110272;27;19918;-71
2023/10/09 02:46:29;;;;;;;;;;;21.70;61.40;;;;;;5108936;28;19920;-72
2023/10/09 02:48:56;;;;;;;;;;;21.80;60.40;;;;;;5109170;28;19927;-71
2023/10/09 02:54:17;;;;;;;;;;;21.90;60.10;;;;;;5110317;27;19940;-71
2023/10/09 02:56:47;;;;;;;;;;;22.00;60.10;;;;;;5110302;28;19947;-71
2023/10/09 02:59:12;;;;;;;;;;;22.00;60.10;;;;;;5108844;28;20375;-71
2023/10/09 03:01:39;;;;;;;;;;;22.00;60.00;;;;;;5108859;28;19927;-71
2023/10/09 03:04:05;;;;;;;;;;;21.90;60.00;;;;;;5109028;28;19920;-71
2023/10/09 03:06:32;;;;;;;;;;;21.90;60.00;;;;;;5108795;28;19920;-71
2023/10/09 03:08:58;;;;;;;;;;;21.90;60.10;;;;;;5109047;28;19927;-71
2023/10/09 03:11:26;;;;;;;;;;;21.80;60.20;;;;;;5108747;28;19920;-72
2023/10/09 03:13:52;;;;;;;;;;;21.80;60.30;;;;;;5108499;28;19924;-71
2023/10/09 03:16:19;;;;;;;;;;;21.70;60.40;;;;;;5109900;28;19920;-71
2023/10/09 03:18:47;;;;;;;;;;;21.70;60.50;;;;;;5108686;28;20278;-72
2023/10/09 03:21:14;;;;;;;;;;;21.70;60.60;;;;;;5109768;28;19924;-72
2023/10/09 03:23:40;;;;;;;;;;;21.70;60.70;;;;;;5108393;28;20014;-71
2023/10/09 03:26:05;;;;;;;;;;;21.60;60.80;;;;;;5109754;28;19978;-71
2023/10/09 03:28:35;;;;;;;;;;;21.60;60.90;;;;;;5108315;28;20306;-72
2023/10/09 03:31:02;;;;;;;;;;;21.50;60.90;;;;;;5108350;28;19924;-70
2023/10/09 03:33:32;;;;;;;;;;;21.50;60.90;;;;;;5109443;28;20176;-71
2023/10/09 03:36:00;;;;;;;;;;;21.50;61.00;;;;;;5109745;28;20003;-71
2023/10/09 03:38:29;;;;;;;;;;;21.50;61.10;;;;;;5109539;28;19943;-70
2023/10/09 03:40:54;;;;;;;;;;;21.50;61.20;;;;;;5108965;28;19924;-71
2023/10/09 03:43:21;;;;;;;;;;;21.50;61.20;;;;;;5108264;28;19989;-71
2023/10/09 03:45:54;;;;;;;;;;;21.40;61.20;;;;;;5109343;28;19920;-71
2023/10/09 03:48:22;;;;;;;;;;;21.40;61.20;;;;;;5108016;28;19930;-71
2023/10/09 03:50:48;;;;;;;;;;;21.50;61.20;;;;;;5109332;28;19927;-70
2023/10/09 03:53:14;;;;;;;;;;;21.40;61.10;;;;;;5122407;28;19924;-71
2023/10/09 03:55:40;;;;;;;;;;;21.50;61.20;;;;;;5129503;28;19920;-71
2023/10/09 03:58:06;;;;;;;;;;;21.40;61.20;;;;;;5111195;28;19919;-71
2023/10/09 04:00:40;;;;;;;;;;;21.50;61.30;;;;;;5111419;28;20002;-71
2023/10/09 04:03:06;;;;;;;;;;;21.40;61.20;;;;;;5129445;28;19919;-71
2023/10/09 04:05:32;;;;;;;;;;;21.50;61.20;;;;;;5096791;28;20006;-71
2023/10/09 04:08:01;;;;;;;;;;;21.40;61.20;;;;;;5097370;28;19919;-71
2023/10/09 04:13:17;;;;;;;;;;;21.50;61.30;;;;;;5097183;28;19946;-71
2023/10/09 04:15:42;;;;;;;;;;;21.40;61.30;;;;;;5097195;28;19931;-71
2023/10/09 04:18:14;;;;;;;;;;;21.40;61.30;;;;;;5097089;28;19924;-72
2023/10/09 04:21:15;;;;;;;;;;;21.40;61.30;;;;;;5097129;28;19920;-72
2023/10/09 04:23:35;;;;;;;;;;;21.40;61.30;;;;;;5097317;28;20002;-71
2023/10/09 04:26:10;;;;;;;;;;;21.50;61.40;;;;;;5097236;28;19959;-70
2023/10/09 04:28:36;;;;;;;;;;;21.40;61.40;;;;;;5097320;28;20290;-71
2023/10/09 04:31:06;;;;;;;;;;;21.40;61.40;;;;;;5131349;27;20194;-71
2023/10/09 04:36:16;;;;;;;;;;;21.40;61.50;;;;;;5110265;27;19918;-71
2023/10/09 04:38:55;;;;;;;;;;;21.40;61.50;;;;;;5109280;28;20287;-71
2023/10/09 04:41:33;;;;;;;;;;;21.40;61.50;;;;;;5108844;28;20015;-71
2023/10/09 04:44:35;;;;;;;;;;;21.40;61.60;;;;;;5109064;28;19920;-71
2023/10/09 04:47:17;;;;;;;;;;;21.40;61.70;;;;;;5108874;28;20395;-70
2023/10/09 04:49:45;;;;;;;;;;;21.40;61.80;;;;;;5108982;28;19920;-71
2023/10/09 04:52:19;;;;;;;;;;;21.30;61.70;;;;;;5108957;28;19920;-71
2023/10/09 04:55:19;;;;;;;;;;;21.30;61.80;;;;;;5108554;28;19924;-71
2023/10/09 04:57:37;;;;;;;;;;;21.30;61.80;;;;;;5108701;28;19968;-71
2023/10/09 05:00:06;;;;;;;;;;;21.30;61.90;;;;;;5143036;27;19927;-71
2023/10/09 05:02:36;;;;;;;;;;;21.30;61.90;;;;;;5108844;28;20286;-71
2023/10/09 05:05:47;;;;;;;;;;;21.30;61.90;;;;;;5109809;28;20284;-71
2023/10/09 05:07:55;;;;;;;;;;;21.30;62.00;;;;;;5108446;28;19920;-71
2023/10/09 05:10:24;;;;;;;;;;;21.30;62.00;;;;;;5108800;28;19920;-71
2023/10/09 05:12:56;;;;;;;;;;;21.30;62.00;;;;;;5108723;28;19920;-71
2023/10/09 05:15:27;;;;;;;;;;;21.30;62.00;;;;;;5109642;28;19924;-72
2023/10/09 05:17:56;;;;;;;;;;;21.30;62.00;;;;;;5108748;28;20135;-71
2023/10/09 05:23:44;;;;;;;;;;;21.30;62.00;;;;;;5130025;27;20388;-72
2023/10/09 05:25:55;;;;;;;;;;;21.30;62.10;;;;;;5129381;28;20019;-71
2023/10/09 05:28:52;;;;;;;;;;;21.20;62.10;;;;;;5129750;28;20360;-71
2023/10/09 05:31:07;;;;;;;;;;;21.30;62.20;;;;;;5129545;28;19923;-71
2023/10/09 05:33:36;;;;;;;;;;;21.30;62.20;;;;;;5129336;28;19920;-71
2023/10/09 05:36:31;;;;;;;;;;;21.30;62.20;;;;;;5128478;28;19919;-69
2023/10/09 05:38:58;;;;;;;;;;;21.30;62.30;;;;;;5128310;28;19927;-68
2023/10/09 05:41:46;;;;;;;;;;;21.30;63.00;;;;;;5129832;27;20362;-70
2023/10/09 06:04:17;;;;;;;;;;;21.10;65.40;;;;;;5048851;27;20189;-69
2023/10/09 06:06:33;;;;;;;;;;;21.10;65.70;;;;;;5043992;28;19925;-70
2023/10/09 06:12:32;;;;;;;;;;;21.20;65.70;;;;;;5096761;27;19944;-70
2023/10/09 06:17:23;;;;;;;;;;;21.40;65.50;;;;;;5100463;27;19916;-70
2023/10/09 06:19:49;;;;;;;;;;;21.40;65.20;;;;;;5086348;28;20448;-70
2023/10/09 06:25:09;;;;;;;;;;;21.50;65.10;;;;;;5119958;27;19932;-70
2023/10/09 06:32:58;;;;;;;;;;;21.60;64.80;;;;;;5085451;27;19927;-71
2023/10/09 06:35:31;;;;;;;;;;;21.60;64.80;;;;;;5017969;28;19925;-76
2023/10/09 06:38:51;;;;;;;;;;;21.60;64.80;;;;;;5052618;28;20379;-76
2023/10/09 06:41:34;;;;;;;;;;;21.60;64.80;;;;;;5058954;28;20194;-76
2023/10/09 06:43:36;;;;;;;;;;;21.50;64.80;;;;;;5055112;28;20023;-72
2023/10/09 06:48:59;;;;;;;;;;;21.40;65.30;;;;;;5046836;28;19920;-71
2023/10/09 06:54:09;;;;;;;;;;;21.30;65.60;;;;;;5073045;27;19920;-72
2023/10/09 06:59:24;;;;;;;;;;;21.30;65.80;;;;;;5090766;27;19920;-71
2023/10/09 07:02:25;;;;;;;;;;;21.30;65.90;;;;;;5070820;28;19936;-77
2023/10/09 07:07:20;;;;;;;;;;;21.30;66.00;;;;;;5081130;27;20403;-72
2023/10/09 07:12:33;;;;;;;;;;;21.30;66.30;;;;;;5094981;28;20238;-69
2023/10/09 07:23:13;;;;;;;;;;;21.40;66.40;;;;;;5069765;28;19924;-74
2023/10/09 07:25:54;;;;;;;;;;;21.40;66.50;;;;;;5070267;28;19924;-72
2023/10/09 07:28:36;;;;;;;;;;;21.40;66.60;;;;;;5065331;28;19924;-71
2023/10/09 07:31:02;;;;;;;;;;;21.40;66.70;;;;;;5065256;28;19925;-75
2023/10/09 07:33:50;;;;;;;;;;;21.40;66.80;;;;;;5064106;28;19925;-72
2023/10/09 07:36:14;;;;;;;;;;;21.40;66.80;;;;;;5102898;28;19994;-76
2023/10/09 07:38:44;;;;;;;;;;;21.40;66.80;;;;;;5069419;28;19958;-73
2023/10/09 07:43:51;;;;;;;;;;;21.40;66.90;;;;;;5049076;28;19923;-71
2023/10/09 07:46:33;;;;;;;;;;;21.50;66.90;;;;;;5067308;28;20229;-70
2023/10/09 07:49:02;;;;;;;;;;;21.40;66.90;;;;;;5043228;28;19986;-70
2023/10/09 07:51:33;;;;;;;;;;;21.40;66.90;;;;;;5064874;28;20324;-69
2023/10/09 07:54:14;;;;;;;;;;;21.40;67.10;;;;;;5064033;28;19932;-70
2023/10/09 07:56:41;;;;;;;;;;;21.30;67.10;;;;;;5067998;28;20063;-71
2023/10/09 07:59:10;;;;;;;;;;;21.40;67.20;;;;;;5052030;28;19928;-70
2023/10/09 08:02:01;;;;;;;;;;;21.30;67.20;;;;;;5071059;28;19925;-69
2023/10/09 08:04:55;;;;;;;;;;;21.30;67.20;;;;;;5049870;28;19921;-69
2023/10/09 08:07:19;;;;;;;;;;;21.30;67.40;;;;;;5054328;28;19974;-74
2023/10/09 08:09:46;;;;;;;;;;;21.20;67.30;;;;;;5061862;28;20015;-75
2023/10/09 08:12:13;;;;;;;;;;;21.30;67.40;;;;;;5052002;28;20323;-68
2023/10/09 08:14:43;;;;;;;;;;;21.20;67.40;;;;;;5040903;28;19964;-70
2023/10/09 08:17:15;;;;;;;;;;;21.20;67.40;;;;;;5051481;28;19925;-71
2023/10/09 08:20:11;;;;;;;;;;;21.20;67.50;;;;;;5046606;28;20593;-72
2023/10/09 08:22:42;;;;;;;;;;;21.20;67.60;;;;;;5054072;28;19939;-71
2023/10/09 08:25:08;;;;;;;;;;;21.20;67.60;;;;;;5065946;28;19925;-74
2023/10/09 08:33:02;;;;;;;;;;;21.20;67.80;;;;;;5082998;27;19932;-72
2023/10/09 08:35:29;;;;;;;;;;;21.20;67.90;;;;;;5069806;28;19932;-72
2023/10/09 08:37:58;;;;;;;;;;;21.20;67.90;;;;;;5074684;28;19927;-72
2023/10/09 08:40:40;;;;;;;;;;;21.20;68.00;;;;;;5071543;28;19932;-72
2023/10/09 08:43:21;;;;;;;;;;;21.20;68.00;;;;;;5070278;28;19932;-72
2023/10/09 08:48:27;;;;;;;;;;;21.20;68.10;;;;;;5078958;27;19923;-72
2023/10/09 08:50:54;;;;;;;;;;;21.20;68.10;;;;;;5081617;28;19924;-72
2023/10/09 08:53:20;;;;;;;;;;;21.10;68.30;;;;;;5048031;28;19960;-75
2023/10/09 08:55:46;;;;;;;;;;;21.20;68.40;;;;;;5046333;28;20135;-71
2023/10/09 08:58:32;;;;;;;;;;;21.10;68.40;;;;;;5049765;28;20395;-72
2023/10/09 09:00:58;;;;;;;;;;;21.10;68.30;;;;;;5062679;28;19932;-75
2023/10/09 09:03:25;;;;;;;;;;;21.10;68.60;;;;;;5049898;28;19928;-73
2023/10/09 09:06:00;;;;;;;;;;;21.10;68.60;;;;;;5053045;28;20410;-72
2023/10/09 09:08:28;;;;;;;;;;;21.20;68.70;;;;;;5053498;28;19929;-72
2023/10/09 09:11:05;;;;;;;;;;;21.20;68.70;;;;;;5049550;28;20363;-73
2023/10/09 09:13:31;;;;;;;;;;;21.20;68.70;;;;;;5054203;28;19977;-75
2023/10/09 09:15:58;;;;;;;;;;;21.20;68.60;;;;;;5052210;28;19924;-72
2023/10/09 09:18:25;;;;;;;;;;;21.20;68.70;;;;;;5086380;28;19931;-78
2023/10/09 09:20:53;;;;;;;;;;;21.20;68.70;;;;;;5082065;28;19921;-75
2023/10/09 09:23:23;;;;;;;;;;;21.20;68.80;;;;;;5057934;28;20020;-70
2023/10/09 09:25:58;;;;;;;;;;;21.20;68.80;;;;;;5055592;28;19925;-69
2023/10/09 09:28:26;;;;;;;;;;;21.30;68.90;;;;;;5057931;28;20396;-78
2023/10/09 09:30:53;;;;;;;;;;;21.30;68.90;;;;;;5051698;28;20040;-71
2023/10/09 09:36:04;;;;;;;;;;;21.30;69.10;;;;;;5092511;27;19927;-68
2023/10/09 09:38:41;;;;;;;;;;;21.40;69.10;;;;;;5078079;28;20011;-68
2023/10/09 09:41:08;;;;;;;;;;;21.40;69.00;;;;;;5078944;28;20250;-67
2023/10/09 09:43:35;;;;;;;;;;;21.40;69.00;;;;;;5080351;28;19920;-73
2023/10/09 09:46:07;;;;;;;;;;;21.50;69.10;;;;;;5110915;28;19936;-69
2023/10/09 09:48:39;;;;;;;;;;;21.50;69.00;;;;;;5113959;27;19924;-69
2023/10/09 09:51:08;;;;;;;;;;;21.50;69.00;;;;;;5077945;28;19931;-73
2023/10/09 09:53:34;;;;;;;;;;;21.50;69.00;;;;;;5075080;28;19932;-72
2023/10/09 09:56:00;;;;;;;;;;;21.50;69.00;;;;;;5075831;28;19970;-74
2023/10/09 09:58:32;;;;;;;;;;;21.50;69.00;;;;;;5078661;28;19928;-74
2023/10/09 10:01:16;;;;;;;;;;;21.40;69.10;;;;;;5077714;28;19928;-75
2023/10/09 10:03:45;;;;;;;;;;;21.40;69.10;;;;;;5081266;28;20090;-75
2023/10/09 10:06:13;;;;;;;;;;;21.40;69.10;;;;;;5076946;28;19934;-75
2023/10/09 10:08:40;;;;;;;;;;;21.30;69.20;;;;;;5080661;28;19923;-79
2023/10/09 10:11:13;;;;;;;;;;;21.30;69.20;;;;;;5073492;28;19935;-79
2023/10/09 10:16:21;;;;;;;;;;;21.30;69.50;;;;;;5070272;27;19924;-74
2023/10/09 10:21:52;;;;;;;;;;;21.30;69.60;;;;;;5088948;27;19920;-74
2023/10/09 10:24:53;;;;;;;;;;;21.20;69.60;;;;;;5104682;28;19928;-75
2023/10/09 10:27:24;;;;;;;;;;;21.30;69.60;;;;;;5076699;28;19920;-74
2023/10/09 10:30:30;;;;;;;;;;;21.30;69.60;;;;;;5072420;28;19964;-78
2023/10/09 10:32:57;;;;;;;;;;;21.30;69.60;;;;;;5073259;28;19924;-75
2023/10/09 10:35:32;;;;;;;;;;;21.30;69.70;;;;;;5107040;28;19925;-74
2023/10/09 10:38:14;;;;;;;;;;;21.30;69.80;;;;;;5104431;28;20145;-79
2023/10/09 10:40:45;;;;;;;;;;;21.20;69.80;;;;;;5075929;28;19925;-75
2023/10/09 10:46:05;;;;;;;;;;;21.20;70.20;;;;;;5059884;28;19929;-79
2023/10/09 10:48:37;;;;;;;;;;;21.20;70.20;;;;;;5067680;28;19925;-78
2023/10/09 10:51:04;;;;;;;;;;;21.10;70.30;;;;;;5101301;28;19960;-77
2023/10/09 10:53:34;;;;;;;;;;;21.10;70.40;;;;;;5085001;28;19950;-79
2023/10/09 11:07:10;;;;;;;;;;;21.20;71.30;;;;;;5074760;27;19921;-80
2023/10/09 11:12:44;;;;;;;;;;;21.20;71.50;;;;;;5091113;27;19916;-76
2023/10/09 11:20:56;;;;;;;;;;;21.20;71.80;;;;;;5096253;27;19921;-79
2023/10/09 11:23:36;;;;;;;;;;;21.20;71.90;;;;;;5088565;28;20294;-78
2023/10/09 11:26:25;;;;;;;;;;;21.20;71.90;;;;;;5089631;28;19924;-80
2023/10/09 11:29:23;;;;;;;;;;;21.20;72.10;;;;;;5084488;28;20361;-74
2023/10/09 11:32:05;;;;;;;;;;;21.20;72.20;;;;;;5083272;28;19924;-78
2023/10/09 11:34:31;;;;;;;;;;;21.10;72.20;;;;;;5104394;28;20431;-77
2023/10/09 11:36:58;;;;;;;;;;;21.10;72.30;;;;;;5111138;27;19924;-74
2023/10/09 11:39:31;;;;;;;;;;;21.10;72.30;;;;;;5076601;28;19935;-72
2023/10/09 11:42:04;;;;;;;;;;;21.10;73.20;;;;;;5083821;28;19924;-71
2023/10/09 11:44:39;;;;;;;;;;;21.10;72.50;;;;;;5086487;28;19920;-74
2023/10/09 11:53:08;;;;;;;;;;;21.10;72.40;;;;;;5072688;27;19924;-72
2023/10/09 11:55:34;;;;;;;;;;;21.10;72.40;;;;;;5083091;28;20011;-72
2023/10/09 11:58:02;;;;;;;;;;;21.10;72.40;;;;;;5088266;28;19928;-72
2023/10/09 12:00:29;;;;;;;;;;;21.10;72.30;;;;;;5052335;28;19936;-73
2023/10/09 12:02:55;;;;;;;;;;;21.10;72.40;;;;;;5055600;28;20386;-76
2023/10/09 12:05:20;;;;;;;;;;;21.00;72.50;;;;;;5054233;28;20014;-69
2023/10/09 12:07:46;;;;;;;;;;;21.10;72.50;;;;;;5053036;28;19932;-70
2023/10/09 12:10:14;;;;;;;;;;;21.10;72.40;;;;;;5084900;28;19986;-69
2023/10/09 12:12:46;;;;;;;;;;;21.10;72.50;;;;;;5081289;28;20371;-77
2023/10/09 12:15:17;;;;;;;;;;;21.10;72.50;;;;;;5052808;28;20396;-72
2023/10/09 12:17:44;;;;;;;;;;;21.10;72.50;;;;;;5051950;28;19929;-72
2023/10/09 12:20:14;;;;;;;;;;;21.10;72.50;;;;;;5047634;28;19952;-70
2023/10/09 12:22:40;;;;;;;;;;;21.10;72.50;;;;;;5051967;28;19925;-72
2023/10/09 12:25:09;;;;;;;;;;;21.10;72.50;;;;;;5051621;28;20098;-71
2023/10/09 12:27:34;;;;;;;;;;;21.10;72.50;;;;;;5052297;28;20023;-69
2023/10/09 12:30:03;;;;;;;;;;;21.00;72.50;;;;;;5044450;28;19925;-72
2023/10/09 12:32:28;;;;;;;;;;;21.10;73.20;;;;;;5050822;28;19928;-72
2023/10/09 12:34:56;;;;;;;;;;;21.00;72.60;;;;;;5050911;28;19936;-71
2023/10/09 12:37:21;;;;;;;;;;;21.10;72.90;;;;;;5050711;28;19921;-73
2023/10/09 12:39:47;;;;;;;;;;;21.10;73.10;;;;;;5051202;28;20717;-76
2023/10/09 12:42:13;;;;;;;;;;;21.10;73.20;;;;;;5050686;28;19928;-73
2023/10/09 12:44:39;;;;;;;;;;;21.10;73.50;;;;;;5050184;28;19929;-69
2023/10/09 12:47:05;;;;;;;;;;;21.00;73.50;;;;;;5053773;28;19928;-69
2023/10/09 12:49:31;;;;;;;;;;;21.00;73.70;;;;;;5051670;28;19929;-71
2023/10/09 12:51:57;;;;;;;;;;;21.00;73.60;;;;;;5053593;28;19963;-72
2023/10/09 12:54:26;;;;;;;;;;;20.90;73.60;;;;;;5051584;28;20039;-72
2023/10/09 12:56:52;;;;;;;;;;;20.90;73.70;;;;;;5079982;28;20165;-76
2023/10/09 12:59:19;;;;;;;;;;;20.90;73.70;;;;;;5062990;28;20627;-77
2023/10/09 13:01:45;;;;;;;;;;;20.90;73.50;;;;;;5076598;28;19925;-75
2023/10/09 13:04:15;;;;;;;;;;;20.90;73.70;;;;;;5035850;28;19942;-71
2023/10/09 13:06:43;;;;;;;;;;;21.00;73.80;;;;;;5032872;28;19929;-72
2023/10/09 13:09:10;;;;;;;;;;;21.00;73.90;;;;;;5033364;28;19928;-72
2023/10/09 13:11:37;;;;;;;;;;;21.00;73.90;;;;;;5039413;28;20273;-72
2023/10/09 13:14:11;;;;;;;;;;;21.00;73.90;;;;;;5041379;28;19932;-74
2023/10/09 13:16:37;;;;;;;;;;;21.00;73.70;;;;;;5044520;28;19927;-72
2023/10/09 13:19:09;;;;;;;;;;;20.90;73.70;;;;;;5047552;28;20595;-76
2023/10/09 13:21:37;;;;;;;;;;;21.00;73.80;;;;;;5046459;28;19921;-72
2023/10/09 13:24:03;;;;;;;;;;;21.00;73.90;;;;;;5040985;28;20028;-73
2023/10/09 13:26:29;;;;;;;;;;;21.00;73.90;;;;;;5070571;28;20005;-76
2023/10/09 13:28:56;;;;;;;;;;;21.00;73.80;;;;;;5075241;28;19952;-74
2023/10/09 13:31:25;;;;;;;;;;;21.00;73.70;;;;;;5042247;28;19929;-73
2023/10/09 13:33:54;;;;;;;;;;;21.00;73.90;;;;;;5045212;28;19921;-74
2023/10/09 13:36:31;;;;;;;;;;;21.00;73.80;;;;;;5042249;28;19928;-74
2023/10/09 13:39:19;;;;;;;;;;;21.00;73.90;;;;;;5042282;28;19924;-73
2023/10/09 13:41:44;;;;;;;;;;;20.90;73.80;;;;;;5083148;28;19924;-73
2023/10/09 13:44:09;;;;;;;;;;;20.90;73.90;;;;;;5090518;28;19927;-73
2023/10/09 13:46:41;;;;;;;;;;;20.90;73.80;;;;;;5054461;28;19975;-73
2023/10/09 13:49:12;;;;;;;;;;;20.90;73.90;;;;;;5051072;28;19921;-74
2023/10/09 13:51:43;;;;;;;;;;;20.90;74.00;;;;;;5043912;28;19979;-74
2023/10/09 13:54:09;;;;;;;;;;;20.80;73.90;;;;;;5072299;28;19932;-73
2023/10/09 13:56:38;;;;;;;;;;;20.80;73.90;;;;;;5053397;28;19920;-73
2023/10/09 13:59:10;;;;;;;;;;;20.80;73.90;;;;;;5071680;28;20011;-73
2023/10/09 14:01:38;;;;;;;;;;;20.80;73.90;;;;;;5046334;28;19924;-74
2023/10/09 14:04:06;;;;;;;;;;;20.70;74.00;;;;;;5048026;28;20388;-74
2023/10/09 14:06:31;;;;;;;;;;;20.70;74.00;;;;;;5070250;28;19921;-73
2023/10/09 14:08:57;;;;;;;;;;;20.70;74.00;;;;;;5033308;28;20591;-73
2023/10/09 14:11:24;;;;;;;;;;;20.70;74.10;;;;;;5078307;28;20023;-73
2023/10/09 14:13:51;;;;;;;;;;;20.60;74.10;;;;;;5048758;28;19982;-74
2023/10/09 14:16:32;;;;;;;;;;;20.70;74.00;;;;;;5050913;28;20011;-74
2023/10/09 14:18:59;;;;;;;;;;;20.60;74.00;;;;;;5047345;28;19927;-73
2023/10/09 14:21:25;;;;;;;;;;;20.60;74.00;;;;;;5049539;28;20576;-76
2023/10/09 14:23:55;;;;;;;;;;;20.60;74.80;;;;;;5037820;28;19935;-74
2023/10/09 14:26:22;;;;;;;;;;;20.60;74.00;;;;;;5075471;28;20020;-78
2023/10/09 14:28:48;;;;;;;;;;;20.60;73.90;;;;;;5055688;28;19986;-74
2023/10/09 14:31:20;;;;;;;;;;;20.60;73.90;;;;;;5053770;28;20024;-75
2023/10/09 14:33:51;;;;;;;;;;;20.60;74.00;;;;;;5072677;28;19928;-74
2023/10/09 14:36:18;;;;;;;;;;;20.70;74.10;;;;;;5071443;28;19982;-72
2023/10/09 14:38:46;;;;;;;;;;;20.70;74.00;;;;;;5076793;28;19954;-75
2023/10/09 14:41:12;;;;;;;;;;;20.70;74.10;;;;;;5043126;28;19921;-73
2023/10/09 14:43:38;;;;;;;;;;;20.70;74.20;;;;;;5075180;28;20801;-71
2023/10/09 14:46:10;;;;;;;;;;;20.70;74.20;;;;;;5044763;28;19921;-72
2023/10/09 14:48:37;;;;;;;;;;;20.70;74.30;;;;;;5049441;28;19927;-71
2023/10/09 14:51:04;;;;;;;;;;;20.70;74.30;;;;;;5051884;28;19929;-72
2023/10/09 14:53:30;;;;;;;;;;;20.70;74.30;;;;;;5049388;28;20917;-72
2023/10/09 14:55:56;;;;;;;;;;;20.60;74.30;;;;;;5049247;28;19925;-72
2023/10/09 14:58:24;;;;;;;;;;;20.60;74.30;;;;;;5073131;28;19968;-72
2023/10/09 15:00:51;;;;;;;;;;;20.60;74.30;;;;;;5076991;28;19924;-73
2023/10/09 15:03:19;;;;;;;;;;;20.60;74.30;;;;;;5042817;28;20391;-73
2023/10/09 15:05:46;;;;;;;;;;;20.50;74.20;;;;;;5078095;28;19943;-72
2023/10/09 15:08:11;;;;;;;;;;;20.50;74.20;;;;;;5053871;28;19920;-70
2023/10/09 15:10:47;;;;;;;;;;;20.50;74.20;;;;;;5045484;28;19929;-70
2023/10/09 15:13:13;;;;;;;;;;;20.50;74.30;;;;;;5067122;28;19921;-70
2023/10/09 15:15:40;;;;;;;;;;;20.50;74.30;;;;;;5062978;28;20388;-70
2023/10/09 15:18:06;;;;;;;;;;;20.50;74.30;;;;;;5082475;28;20406;-71
2023/10/09 15:20:31;;;;;;;;;;;20.50;74.30;;;;;;5052576;28;19921;-70
2023/10/09 15:22:57;;;;;;;;;;;20.40;74.20;;;;;;5050716;28;19921;-70
2023/10/09 15:25:22;;;;;;;;;;;20.40;74.20;;;;;;5051017;28;19925;-70
2023/10/09 15:27:48;;;;;;;;;;;20.40;74.20;;;;;;5050106;28;19943;-69
2023/10/09 15:30:13;;;;;;;;;;;20.40;74.30;;;;;;5051489;28;19927;-70
2023/10/09 15:32:39;;;;;;;;;;;20.40;74.30;;;;;;5050537;28;20399;-71
2023/10/09 15:35:06;;;;;;;;;;;20.40;74.30;;;;;;5055405;28;20328;-69
2023/10/09 15:37:31;;;;;;;;;;;20.40;74.30;;;;;;5050419;28;20284;-70
2023/10/09 15:39:57;;;;;;;;;;;20.40;74.30;;;;;;5050636;28;19921;-69
2023/10/09 15:42:22;;;;;;;;;;;20.40;74.30;;;;;;5050310;28;19948;-69
2023/10/09 15:44:53;;;;;;;;;;;20.40;74.30;;;;;;5051936;28;19975;-70
2023/10/09 15:47:21;;;;;;;;;;;20.40;74.40;;;;;;5050864;28;20007;-69
2023/10/09 15:49:47;;;;;;;;;;;20.40;74.30;;;;;;5051077;28;19927;-69
2023/10/09 15:52:14;;;;;;;;;;;20.30;75.10;;;;;;5050621;28;20384;-70
2023/10/09 15:54:42;;;;;;;;;;;20.40;74.30;;;;;;5050442;28;19920;-70
2023/10/09 15:57:09;;;;;;;;;;;20.30;74.30;;;;;;5052047;28;19931;-70
2023/10/09 15:59:35;;;;;;;;;;;20.30;74.30;;;;;;5052175;28;19921;-70
2023/10/09 16:02:03;;;;;;;;;;;20.40;74.40;;;;;;5051026;28;20368;-69
2023/10/09 16:04:33;;;;;;;;;;;20.30;74.30;;;;;;5051746;28;20426;-70
2023/10/09 16:07:00;;;;;;;;;;;20.30;74.30;;;;;;5050447;28;19970;-69
2023/10/09 16:09:25;;;;;;;;;;;20.30;75.10;;;;;;5052421;28;20382;-69
2023/10/09 16:11:51;;;;;;;;;;;20.30;74.30;;;;;;5051823;28;20024;-70
2023/10/09 16:14:16;;;;;;;;;;;20.30;74.30;;;;;;5050645;28;20015;-70
2023/10/09 16:16:42;;;;;;;;;;;20.30;74.30;;;;;;5050671;28;19931;-70
2023/10/09 16:19:10;;;;;;;;;;;20.30;74.30;;;;;;5084005;28;19920;-70
2023/10/09 16:21:36;;;;;;;;;;;20.30;74.30;;;;;;5050997;28;19925;-70
2023/10/09 16:24:01;;;;;;;;;;;20.30;74.30;;;;;;5084023;28;20296;-69
2023/10/09 16:26:39;;;;;;;;;;;20.30;74.30;;;;;;5050676;28;20011;-69
2023/10/09 16:29:07;;;;;;;;;;;20.30;74.40;;;;;;5050211;28;19921;-69
2023/10/09 16:31:35;;;;;;;;;;;20.30;74.30;;;;;;5050529;28;20388;-69
2023/10/09 16:34:04;;;;;;;;;;;20.30;74.40;;;;;;5051724;28;19963;-70
2023/10/09 16:36:30;;;;;;;;;;;20.30;74.40;;;;;;5050432;28;20283;-69
2023/10/09 16:38:56;;;;;;;;;;;20.30;74.30;;;;;;5053585;28;20346;-69
2023/10/09 16:41:25;;;;;;;;;;;20.30;74.40;;;;;;5054441;28;20011;-69
2023/10/09 16:43:52;;;;;;;;;;;20.20;74.30;;;;;;5087460;28;19927;-69
2023/10/09 16:46:21;;;;;;;;;;;20.30;74.30;;;;;;5087811;28;20280;-70